Data for 01/29/2006

Time Sea-Level Adjusted Pressure Absolute Pressure Temperature Relative Humidity Dew Point   
(mb) (inHg) (mb) (inHg) (C) (F) (%) (C) (F)
00:05 1009 29.8 838 24.75 -1 30.3 60 -7.7 18.1
00:10 1009 29.8 838 24.75 -1 30.2 61 -7.5 18.4
00:15 1009 29.8 838 24.75 -1 30.2 60 -7.7 18.1
00:20 1009 29.8 838 24.75 -1 30.3 60 -7.7 18.2
00:25 1009 29.8 838 24.75 -1.1 30.1 60 -7.8 17.9
00:30 1009 29.8 838 24.75 -1.1 30 59 -8.2 17.3
00:35 1009 29.8 838 24.75 -1.1 30 59 -8.1 17.4
00:40 1009 29.8 838 24.75 -1.4 29.5 61 -8 17.6
00:45 1009 29.8 838 24.75 -1.5 29.2 57 -9.1 15.6
00:50 1009 29.8 838 24.75 -1.3 29.8 55 -9.1 15.6
00:55 1009 29.8 838 24.75 -1.3 29.7 56 -8.9 16
01:00 1009 29.8 838 24.75 -1.2 29.8 54 -9.4 15
01:05 1009 29.8 838 24.75 -1.1 30.1 52 -9.7 14.5
01:10 1009 29.8 838 24.75 -1.1 30.1 52 -9.7 14.5
01:15 1009 29.8 838 24.75 -1.1 30.1 51 -10 14
01:20 1009 29.8 838 24.75 -1 30.2 50 -10.1 13.8
01:25 1009 29.8 838 24.75 -1 30.2 51 -10 14
01:30 1009 29.8 838 24.75 -1.1 29.9 51 -10 14
01:35 1009 29.8 838 24.75 -1.2 29.9 50 -10.3 13.5
01:40 1009 29.8 838 24.75 -1.2 29.9 50 -10.4 13.3
01:45 1009 29.8 838 24.75 -1.1 30 49 -10.6 12.9
01:50 1009 29.8 838 24.75 -1.1 29.9 49 -10.5 13.1
01:55 1009 29.8 838 24.75 -1.2 29.8 50 -10.5 13.1
02:00 1009 29.8 838 24.75 -1.3 29.6 50 -10.4 13.2
02:05 1009 29.8 839 24.78 -1.4 29.6 50 -10.6 12.9
02:10 1009 29.8 839 24.78 -1.4 29.6 50 -10.4 13.2
02:15 1009 29.8 839 24.78 -1.4 29.4 51 -10.3 13.4
02:20 1009 29.8 839 24.78 -1.5 29.4 51 -10.5 13.2
02:25 1010 29.83 839 24.78 -1.5 29.3 51 -10.4 13.3
02:30 1010 29.83 839 24.78 -1.5 29.3 51 -10.4 13.2
02:35 1010 29.83 839 24.78 -1.4 29.5 50 -10.6 13
02:40 1010 29.83 839 24.78 -1.4 29.5 49 -10.8 12.6
02:45 1010 29.83 839 24.78 -1.3 29.6 49 -10.7 12.7
02:50 1010 29.83 839 24.78 -1.2 29.8 47 -11.3 11.7
02:55 1010 29.83 839 24.78 -1.1 30 47 -11 12.2
03:00 1010 29.83 839 24.78 -1.2 29.8 48 -10.9 12.3
03:05 1010 29.83 839 24.78 -1.3 29.6 49 -10.8 12.6
03:10 1010 29.83 839 24.78 -1.5 29.4 48 -11.1 12
03:15 1010 29.83 839 24.78 -1.4 29.5 47 -11.2 11.9
03:20 1010 29.83 839 24.78 -1.3 29.6 48 -11 12.3
03:25 1010 29.83 839 24.78 -1.4 29.5 48 -11 12.2
03:30 1010 29.83 839 24.78 -1.5 29.3 49 -10.8 12.6
03:35 1010 29.83 839 24.78 -1.6 29.2 50 -10.7 12.8
03:40 1010 29.83 840 24.81 -1.5 29.3 49 -10.8 12.6
03:45 1010 29.83 840 24.81 -1.3 29.6 50 -10.5 13
03:50 1011 29.85 840 24.81 -1.3 29.7 51 -10.2 13.7
03:55 1011 29.85 840 24.81 -1.2 29.9 59 -8.2 17.3
04:00 1011 29.85 840 24.81 -1.4 29.5 56 -9 15.8
04:05 1011 29.85 840 24.81 -1.4 29.5 57 -8.9 15.9
04:10 1011 29.85 840 24.81 -1.5 29.4 57 -8.9 16
04:15 1011 29.85 840 24.81 -1.5 29.2 53 -10 14
04:20 1011 29.85 840 24.81 -1.4 29.4 52 -10.1 13.7
04:25 1011 29.85 840 24.81 -1.5 29.3 50 -10.8 12.6
04:30 1011 29.85 840 24.81 -1.7 29 50 -10.8 12.5
04:35 1011 29.85 840 24.81 -1.8 28.8 50 -11 12.2
04:40 1011 29.85 840 24.81 -1.8 28.8 49 -11 12.2
04:45 1011 29.85 840 24.81 -1.7 29 49 -11.1 12
04:50 1011 29.85 840 24.81 -1.6 29.1 49 -11 12.2
04:55 1011 29.85 840 24.81 -1.7 28.9 49 -11 12.3
05:00 1011 29.85 840 24.81 -1.9 28.6 50 -11 12.2
05:05 1011 29.85 840 24.81 -2 28.5 50 -11.1 11.9
05:10 1011 29.85 840 24.81 -2.1 28.3 51 -11 12.3
05:15 1011 29.85 840 24.81 -2.2 28 50 -11.3 11.7
05:20 1011 29.85 840 24.81 -2.1 28.2 49 -11.5 11.4
05:25 1011 29.85 840 24.81 -2.1 28.3 50 -11.2 11.8
05:30 1011 29.85 840 24.81 -2.2 28 50 -11.3 11.6
05:35 1011 29.85 840 24.81 -2.3 27.9 50 -11.3 11.7
05:40 1011 29.85 840 24.81 -2.4 27.7 50 -11.4 11.5
05:45 1011 29.85 840 24.81 -2.3 27.9 50 -11.3 11.7
05:50 1011 29.85 840 24.81 -2.3 27.8 50 -11.4 11.5
05:55 1011 29.85 840 24.81 -2.4 27.6 51 -11.4 11.6
06:00 1011 29.85 840 24.81 -2.3 27.8 49 -11.6 11.1
06:05 1011 29.85 841 24.83 -2.2 28 49 -11.6 11.2
06:10 1012 29.88 841 24.83 -2.4 27.7 50 -11.5 11.3
06:15 1012 29.88 841 24.83 -2.5 27.6 49 -11.7 11
06:20 1012 29.88 841 24.83 -2.4 27.6 50 -11.5 11.3
06:25 1012 29.88 841 24.83 -2.4 27.6 50 -11.5 11.3
06:30 1012 29.88 841 24.83 -2.6 27.3 51 -11.4 11.4
06:35 1012 29.88 841 24.83 -2.7 27.2 51 -11.4 11.5
06:40 1012 29.88 841 24.83 -2.7 27.2 51 -11.6 11.2
06:45 1012 29.88 841 24.83 -2.6 27.3 51 -11.4 11.5
06:50 1012 29.88 841 24.83 -2.7 27.2 51 -11.4 11.5
06:55 1012 29.88 841 24.83 -2.6 27.3 52 -11.1 12
07:00 1012 29.88 842 24.86 -2.7 27.2 52 -11.1 11.9
07:05 1012 29.88 842 24.86 -2.4 27.7 52 -11.1 12.1
07:10 1012 29.88 842 24.86 -2.3 27.8 52 -10.9 12.3
07:15 1012 29.88 842 24.86 -2.4 27.7 53 -10.8 12.5
07:20 1013 29.91 842 24.86 -2.4 27.6 53 -10.7 12.8
07:25 1013 29.91 842 24.86 -2.4 27.8 53 -10.8 12.6
07:30 1013 29.91 842 24.86 -2.3 27.8 53 -10.7 12.7
07:35 1013 29.91 842 24.86 -2.2 28 54 -10.4 13.3
07:40 1013 29.91 842 24.86 -2.2 28 55 -10.1 13.8
07:45 1013 29.91 842 24.86 -2.2 28 55 -10.1 13.8
07:50 1013 29.91 842 24.86 -2.2 28.1 54 -10.4 13.3
07:55 1013 29.91 842 24.86 -2 28.4 54 -10 13.9
08:00 1013 29.91 842 24.86 -2.1 28.3 56 -9.8 14.4
08:05 1013 29.91 842 24.86 -2.1 28.2 56 -9.7 14.6
08:10 1013 29.91 842 24.86 -2.1 28.3 55 -9.8 14.3
08:15 1013 29.91 842 24.86 -2 28.4 57 -9.4 15
08:20 1013 29.91 842 24.86 -2 28.4 57 -9.5 15
08:25 1013 29.91 842 24.86 -2.1 28.2 57 -9.5 14.8
08:30 1013 29.91 842 24.86 -2.2 28.1 57 -9.6 14.7
08:35 1013 29.91 843 24.89 -2.3 27.8 57 -9.7 14.6
08:40 1013 29.91 843 24.89 -2.3 27.9 56 -10 14
08:45 1014 29.94 843 24.89 -2.3 27.9 55 -10.1 13.9
08:50 1014 29.94 843 24.89 -2.3 27.8 54 -10.5 13.2
08:55 1014 29.94 843 24.89 -2 28.4 52 -10.7 12.8
09:00 1014 29.94 843 24.89 -1.8 28.7 51 -10.6 13
09:05 1014 29.94 843 24.89 -1.9 28.6 52 -10.6 12.9
09:10 1014 29.94 843 24.89 -1.9 28.7 51 -10.7 12.8
09:15 1014 29.94 843 24.89 -1.9 28.6 52 -10.6 12.9
09:20 1014 29.94 843 24.89 -1.8 28.7 51 -10.8 12.6
09:25 1014 29.94 843 24.89 -1.7 29 50 -10.7 12.8
09:30 1014 29.94 843 24.89 -1.6 29.1 51 -10.5 13.1
09:35 1014 29.94 843 24.89 -1.9 28.5 53 -10.2 13.6
09:40 1014 29.94 843 24.89 -1.9 28.7 52 -10.5 13
09:45 1014 29.94 843 24.89 -1.5 29.2 50 -10.7 12.7
09:50 1014 29.94 843 24.89 -1.4 29.5 51 -10.4 13.3
09:55 1014 29.94 844 24.92 -1.3 29.6 50 -10.3 13.4
10:00 1014 29.94 844 24.92 -1.2 29.8 50 -10.3 13.5
10:05 1014 29.94 844 24.92 -1.4 29.5 50 -10.4 13.2
10:10 1015 29.97 844 24.92 -1.3 29.7 50 -10.4 13.3
10:15 1015 29.97 844 24.92 -1.1 30 48 -10.9 12.5
10:20 1015 29.97 844 24.92 -0.7 30.7 47 -10.6 12.9
10:25 1015 29.97 844 24.92 -0.2 31.7 45 -10.8 12.5
10:30 1015 29.97 844 24.92 -0.1 31.8 45 -10.7 12.8
10:35 1015 29.97 844 24.92 -0.2 31.6 47 -10.4 13.4
10:40 1015 29.97 844 24.92 0.2 32.4 44 -10.6 12.9
10:45 1015 29.97 844 24.92 0.1 32.2 45 -10.6 13
10:50 1015 29.97 844 24.92 -0 32 45 -10.7 12.8
10:55 1015 29.97 844 24.92 0.1 32.2 45 -10.4 13.2
11:00 1015 29.97 844 24.92 0.4 32.8 42 -11 12.1
11:05 1015 29.97 844 24.92 1.1 33.9 40 -11 12.3
11:10 1015 29.97 844 24.92 1 33.8 42 -10.7 12.8
11:15 1015 29.97 844 24.92 0.6 33 43 -10.8 12.6
11:20 1015 29.97 844 24.92 0.6 33 43 -10.5 13
11:25 1015 29.97 844 24.92 0.6 33 43 -10.6 12.8
11:30 1015 29.97 844 24.92 0.5 32.9 42 -10.9 12.4
11:35 1015 29.97 844 24.92 0.5 32.9 43 -10.8 12.6
11:40 1015 29.97 844 24.92 0.6 33.1 40 -11.6 11
11:45 1015 29.97 844 24.92 0.8 33.4 39 -11.6 11.2
11:50 1015 29.97 844 24.92 0.9 33.6 39 -11.7 10.9
11:55 1015 29.97 844 24.92 0.9 33.7 36 -12.4 9.7
12:00 1015 29.97 844 24.92 1.1 34.1 35 -12.7 9.1
12:05 1015 29.97 844 24.92 1.7 35.1 34 -12.6 9.2
12:10 1015 29.97 844 24.92 1.8 35.2 34 -12.6 9.4
12:15 1015 29.97 844 24.92 1.9 35.4 32 -13.1 8.3
12:20 1015 29.97 844 24.92 1.4 34.5 33 -13.2 8.2
12:25 1015 29.97 844 24.92 1.4 34.6 33 -13.1 8.3
12:30 1015 29.97 844 24.92 1.3 34.3 34 -13 8.5
12:35 1015 29.97 844 24.92 1.2 34.1 33 -13.3 8.1
12:40 1015 29.97 844 24.92 1.2 34.2 34 -13 8.5
12:45 1015 29.97 844 24.92 1.2 34.2 35 -12.7 9.2
12:50 1015 29.97 844 24.92 1.2 34.1 37 -12.1 10.3
12:55 1015 29.97 844 24.92 1.4 34.4 34 -12.9 8.8
13:00 1015 29.97 844 24.92 1.4 34.5 33 -13.2 8.2
13:05 1015 29.97 844 24.92 1.4 34.6 35 -12.5 9.5
13:10 1015 29.97 844 24.92 1.2 34.2 37 -12 10.5
13:15 1015 29.97 844 24.92 1.2 34.1 38 -11.8 10.8
13:20 1015 29.97 844 24.92 1.3 34.3 39 -11.3 11.6
13:25 1015 29.97 844 24.92 1.3 34.3 35 -12.5 9.6
13:30 1015 29.97 844 24.92 1.5 34.6 35 -12.4 9.6
13:35 1015 29.97 844 24.92 1.7 35 35 -12.4 9.7
13:40 1015 29.97 844 24.92 1.8 35.2 33 -12.7 9.1
13:45 1015 29.97 844 24.92 1.9 35.4 34 -12.6 9.4
13:50 1015 29.97 844 24.92 2.1 35.7 34 -12.1 10.3
13:55 1015 29.97 844 24.92 1.9 35.4 36 -11.5 11.2
14:00 1015 29.97 844 24.92 1.7 35 36 -12 10.4
14:05 1015 29.97 844 24.92 1.6 34.9 35 -12.2 10
14:10 1015 29.97 844 24.92 1.6 34.9 35 -12.3 9.8
14:15 1015 29.97 844 24.92 1.6 34.9 36 -12.1 10.2
14:20 1015 29.97 844 24.92 1.5 34.7 35 -12.3 9.8
14:25 1015 29.97 844 24.92 1.6 34.9 35 -12.2 10.1
14:30 1015 29.97 844 24.92 1.6 34.8 35 -12.3 9.8
14:35 1015 29.97 844 24.92 1.6 34.9 35 -12.2 10.1
14:40 1015 29.97 844 24.92 1.7 35 37 -11.4 11.4
14:45 1015 29.97 844 24.92 1.4 34.5 39 -11.1 12
14:50 1015 29.97 844 24.92 1.3 34.4 42 -10.3 13.5
14:55 1015 29.97 844 24.92 1.4 34.5 38 -11.4 11.5
15:00 1015 29.97 844 24.92 1.6 34.9 39 -11 12.1
15:05 1015 29.97 844 24.92 2.2 36 36 -11.4 11.4
15:10 1015 29.97 844 24.92 2.2 36 35 -11.6 11
15:15 1015 29.97 844 24.92 1.8 35.3 38 -10.9 12.4
15:20 1015 29.97 844 24.92 1.5 34.7 40 -10.7 12.7
15:25 1015 29.97 844 24.92 1.3 34.3 41 -10.6 12.9
15:30 1015 29.97 844 24.92 1.7 35 39 -10.8 12.6
15:35 1015 29.97 844 24.92 2.2 36 37 -10.9 12.3
15:40 1015 29.97 844 24.92 2.2 36 40 -10.1 13.8
15:45 1015 29.97 844 24.92 2.3 36.1 39 -10.3 13.4
15:50 1015 29.97 844 24.92 2.2 36 38 -10.7 12.7
15:55 1015 29.97 844 24.92 2.2 36 36 -11.3 11.7
16:00 1015 29.97 844 24.92 2.1 35.8 37 -11.1 11.9
16:05 1015 29.97 845 24.95 2 35.6 37 -11.3 11.7
16:10 1015 29.97 845 24.95 1.8 35.3 39 -10.6 13
16:15 1015 29.97 845 24.95 1.5 34.7 38 -11.2 11.8
16:20 1015 29.97 845 24.95 1.4 34.6 39 -11.2 11.8
16:25 1015 29.97 845 24.95 1.3 34.3 38 -11.6 11.2
16:30 1015 29.97 845 24.95 1.3 34.4 36 -12 10.4
16:35 1015 29.97 845 24.95 1.3 34.4 37 -11.8 10.7
16:40 1015 29.97 845 24.95 1 33.7 39 -11.6 11.2
16:45 1015 29.97 845 24.95 0.4 32.7 41 -11.5 11.2
16:50 1015 29.97 844 24.92 0.2 32.4 42 -11.3 11.6
16:55 1015 29.97 844 24.92 0.1 32.1 40 -12 10.5
17:00 1015 29.97 844 24.92 0.1 32.3 41 -11.6 11.2
17:05 1015 29.97 845 24.95 -0.1 31.8 43 -11.2 11.9
17:10 1015 29.97 845 24.95 -0.6 31 43 -11.6 11.1
17:15 1015 29.97 845 24.95 -0.7 30.8 44 -11.5 11.3
17:20 1015 29.97 844 24.92 -0.7 30.7 43 -11.8 10.7
17:25 1015 29.97 844 24.92 -0.6 30.8 42 -11.9 10.5
17:30 1015 29.97 844 24.92 -0.7 30.8 42 -12 10.3
17:35 1015 29.97 844 24.92 -0.7 30.8 42 -12.2 10
17:40 1015 29.97 844 24.92 -0.7 30.8 42 -12 10.4
17:45 1015 29.97 844 24.92 -0.8 30.6 43 -12 10.4
17:50 1015 29.97 845 24.95 -0.9 30.3 44 -11.6 11.1
17:55 1015 29.97 845 24.95 -1.2 29.8 45 -11.6 11.2
18:00 1015 29.97 845 24.95 -1.4 29.6 45 -11.8 10.7
18:05 1015 29.97 844 24.92 -1.3 29.6 43 -12.3 9.8
18:10 1015 29.97 844 24.92 -1.2 29.9 43 -12.1 10.2
18:15 1015 29.97 844 24.92 -1.3 29.7 44 -12 10.4
18:20 1015 29.97 844 24.92 -1.5 29.3 44 -12.1 10.2
18:25 1015 29.97 845 24.95 -1.6 29.2 45 -12.2 10.1
18:30 1015 29.97 845 24.95 -1.9 28.5 48 -11.7 11
18:35 1016 30 845 24.95 -2.3 27.9 44 -13.1 8.4
18:40 1016 30 845 24.95 -2.4 27.7 45 -12.9 8.8
18:45 1016 30 845 24.95 -2.6 27.4 44 -13.2 8.2
18:50 1016 30 845 24.95 -2 28.5 41 -13.5 7.7
18:55 1015 29.97 845 24.95 -1.5 29.2 43 -12.7 9.2
19:00 1015 29.97 845 24.95 -1.8 28.8 43 -12.7 9.1
19:05 1016 30 845 24.95 -2.4 27.8 47 -12.2 10
19:10 1016 30 845 24.95 -3 26.6 47 -12.8 8.9
19:15 1016 30 845 24.95 -2.9 26.7 44 -13.5 7.6
19:20 1016 30 845 24.95 -2.6 27.3 44 -13.2 8.2
19:25 1015 29.97 845 24.95 -2.5 27.5 45 -12.8 8.9
19:30 1015 29.97 845 24.95 -2.6 27.3 46 -12.8 9
19:35 1016 30 845 24.95 -2.4 27.6 45 -12.8 9
19:40 1016 30 845 24.95 -2.7 27.2 47 -12.4 9.8
19:45 1016 30 845 24.95 -2.7 27.2 46 -12.8 8.9
19:50 1015 29.97 845 24.95 -2.6 27.4 47 -12.4 9.7
19:55 1015 29.97 845 24.95 -2.6 27.4 48 -12.3 9.9
20:00 1015 29.97 845 24.95 -2.2 28 45 -12.7 9.1
20:05 1015 29.97 845 24.95 -1.8 28.7 45 -12.4 9.8
20:10 1015 29.97 845 24.95 -1.8 28.7 46 -12.1 10.3
20:15 1015 29.97 845 24.95 -1.9 28.7 48 -11.6 11.2
20:20 1015 29.97 844 24.92 -2.4 27.7 49 -11.7 10.9
20:25 1015 29.97 844 24.92 -3.3 26.1 51 -12 10.4
20:30 1015 29.97 844 24.92 -3.4 25.9 52 -11.9 10.6
20:35 1015 29.97 844 24.92 -3.3 26.1 51 -12.2 10.1
20:40 1015 29.97 844 24.92 -3.3 26.1 49 -12.4 9.6
20:45 1015 29.97 844 24.92 -3.1 26.4 49 -12.4 9.7
20:50 1015 29.97 844 24.92 -2.9 26.7 48 -12.5 9.5
20:55 1015 29.97 844 24.92 -2.9 26.7 49 -12.3 9.8
21:00 1015 29.97 844 24.92 -2.8 26.9 47 -12.6 9.3
21:05 1015 29.97 844 24.92 -2.6 27.3 46 -12.6 9.3
21:10 1015 29.97 844 24.92 -2.6 27.4 46 -12.6 9.3
21:15 1015 29.97 844 24.92 -2.7 27.2 48 -12.3 9.8
21:20 1015 29.97 844 24.92 -2.7 27.2 48 -12.2 10.1
21:25 1015 29.97 844 24.92 -2.7 27.2 48 -12.2 10
21:30 1014 29.94 844 24.92 -2.8 26.9 47 -12.6 9.4
21:35 1014 29.94 844 24.92 -2.8 27 47 -12.5 9.5
21:40 1014 29.94 844 24.92 -2.7 27.2 47 -12.5 9.4
21:45 1014 29.94 843 24.89 -2.6 27.3 47 -12.6 9.4
21:50 1014 29.94 843 24.89 -2.7 27.1 46 -12.8 9
21:55 1014 29.94 843 24.89 -2.6 27.3 45 -12.9 8.7
22:00 1014 29.94 843 24.89 -2.2 28 43 -13.1 8.4
22:05 1014 29.94 843 24.89 -2.1 28.2 43 -13 8.6
22:10 1014 29.94 843 24.89 -2.2 28.1 45 -12.5 9.5
22:15 1014 29.94 843 24.89 -2.2 28.1 44 -12.9 8.8
22:20 1014 29.94 843 24.89 -1.9 28.6 45 -12.4 9.6
22:25 1014 29.94 843 24.89 -2 28.4 46 -12.2 10.1
22:30 1014 29.94 843 24.89 -1.9 28.5 46 -12.1 10.3
22:35 1014 29.94 843 24.89 -2 28.3 47 -11.9 10.6
22:40 1014 29.94 843 24.89 -2.2 28 48 -11.8 10.7
22:45 1014 29.94 843 24.89 -1.9 28.5 47 -11.8 10.7
22:50 1014 29.94 843 24.89 -2 28.4 47 -11.7 10.9
22:55 1014 29.94 843 24.89 -2.1 28.3 47 -11.9 10.6
23:00 1014 29.94 843 24.89 -2.1 28.2 46 -12.2 10.1
23:05 1013 29.91 843 24.89 -2.1 28.2 47 -11.8 10.7
23:10 1013 29.91 843 24.89 -2.2 28 49 -11.4 11.5
23:15 1013 29.91 843 24.89 -2.1 28.3 48 -11.6 11.2
23:20 1013 29.91 843 24.89 -2.2 28 50 -11.3 11.7
23:25 1013 29.91 843 24.89 -3 26.6 54 -11 12.2
23:30 1013 29.91 843 24.89 -2.9 26.7 52 -11.5 11.3
23:35 1013 29.91 843 24.89 -2.7 27.1 51 -11.6 11.1
23:40 1013 29.91 843 24.89 -2.6 27.3 49 -11.8 10.7
23:45 1013 29.91 843 24.89 -2.5 27.5 49 -11.7 10.9
23:50 1013 29.91 843 24.89 -2.6 27.3 49 -11.9 10.6
23:55 1013 29.91 843 24.89 -2.6 27.4 49 -11.9 10.6
24:00 1013 29.91 843 24.89 -2.5 27.4 49 -11.9 10.7